createdAt,value
2023-05-08T00:01:33.822Z,102323.88
2023-05-08T00:04:02.900Z,102317.16
2023-05-08T00:06:31.101Z,102315.50
2023-05-08T00:08:57.888Z,102318.03
2023-05-08T00:11:28.824Z,102295.75
2023-05-08T00:13:57.198Z,102312.31
2023-05-08T00:16:24.153Z,102297.53
2023-05-08T00:18:50.941Z,102300.28
2023-05-08T00:21:18.751Z,102303.09
2023-05-08T00:23:45.557Z,102307.78
2023-05-08T00:26:12.292Z,102308.97
2023-05-08T00:28:39.136Z,102328.97
2023-05-08T00:31:06.793Z,102296.09
2023-05-08T00:33:34.491Z,102331.66
2023-05-08T00:36:03.742Z,102327.41
2023-05-08T00:38:32.717Z,102330.00
2023-05-08T00:41:03.444Z,102327.66
2023-05-08T00:43:30.096Z,102322.38
2023-05-08T00:45:59.608Z,102312.38
2023-05-08T00:48:36.456Z,102328.09
2023-05-08T00:51:08.499Z,102333.41
2023-05-08T00:53:42.980Z,102320.34
2023-05-08T00:56:19.513Z,102322.06
2023-05-08T00:58:49.281Z,102325.66
2023-05-08T01:01:16.305Z,102322.38
2023-05-08T01:03:44.697Z,102314.94
2023-05-08T01:06:12.095Z,102326.25
2023-05-08T01:08:41.144Z,102317.81
2023-05-08T01:11:23.577Z,102330.72
2023-05-08T01:13:57.951Z,102328.13
2023-05-08T01:16:51.913Z,102333.59
2023-05-08T01:19:37.617Z,102344.38
2023-05-08T01:22:04.332Z,102340.00
2023-05-08T01:24:51.902Z,102331.97
2023-05-08T01:27:40.872Z,102337.44
2023-05-08T01:30:45.851Z,102341.16
2023-05-08T01:33:46.217Z,102337.81
2023-05-08T01:36:31.410Z,102345.78
2023-05-08T01:39:19.374Z,102336.31
2023-05-08T01:42:05.973Z,102335.59
2023-05-08T01:44:38.056Z,102331.91
2023-05-08T01:47:10.090Z,102337.53
2023-05-08T01:49:49.330Z,102344.56
2023-05-08T01:52:21.505Z,102349.94
2023-05-08T01:55:24.741Z,102331.72
2023-05-08T01:57:55.065Z,102343.03
2023-05-08T02:00:24.082Z,102337.00
2023-05-08T02:02:52.712Z,102343.09
2023-05-08T02:05:22.830Z,102351.19
2023-05-08T02:07:51.957Z,102346.03
2023-05-08T02:10:20.418Z,102346.88
2023-05-08T02:12:48.873Z,102340.84
2023-05-08T02:15:17.519Z,102343.59
2023-05-08T02:17:51.608Z,102345.38
2023-05-08T02:20:20.235Z,102348.03
2023-05-08T02:22:51.677Z,102356.06
2023-05-08T02:25:19.967Z,102349.03
2023-05-08T02:27:58.846Z,102349.25
2023-05-08T02:30:26.704Z,102348.25
2023-05-08T02:32:59.739Z,102352.78
2023-05-08T02:35:31.077Z,102354.56
2023-05-08T02:37:59.694Z,102358.22
2023-05-08T02:40:29.388Z,102348.91
2023-05-08T02:42:56.814Z,102354.78
2023-05-08T02:45:32.718Z,102349.69
2023-05-08T02:48:20.492Z,102349.59
2023-05-08T02:51:21.511Z,102349.75
2023-05-08T02:53:56.875Z,102349.09
2023-05-08T02:57:01.096Z,102336.69
2023-05-08T02:59:36.905Z,102331.59
2023-05-08T03:02:16.382Z,102328.88
2023-05-08T03:04:52.350Z,102332.47
2023-05-08T03:07:23.108Z,102323.00
2023-05-08T03:09:59.081Z,102328.09
2023-05-08T03:12:29.200Z,102318.53
2023-05-08T03:15:36.770Z,102328.22
2023-05-08T03:18:08.319Z,102316.53
2023-05-08T03:20:40.020Z,102314.81
2023-05-08T03:23:11.080Z,102312.81
2023-05-08T03:25:40.152Z,102317.81
2023-05-08T03:28:07.674Z,102322.84
2023-05-08T03:30:37.343Z,102318.81
2023-05-08T03:33:05.744Z,102328.16
2023-05-08T03:35:35.158Z,102320.00
2023-05-08T03:38:02.754Z,102308.50
2023-05-08T03:40:29.626Z,102321.16
2023-05-08T03:42:56.696Z,102313.66
2023-05-08T03:45:26.956Z,102321.56
2023-05-08T03:47:54.218Z,102322.81
2023-05-08T03:50:22.981Z,102310.47
2023-05-08T03:52:50.556Z,102316.66
2023-05-08T03:55:19.811Z,102306.81
2023-05-08T03:57:57.245Z,102316.13
2023-05-08T04:00:37.616Z,102307.50
2023-05-08T04:03:20.210Z,102317.84
2023-05-08T04:06:12.825Z,102316.81
2023-05-08T04:08:45.696Z,102315.09
2023-05-08T04:11:23.481Z,102329.03
2023-05-08T04:13:57.782Z,102331.53
2023-05-08T04:16:27.132Z,102333.00
2023-05-08T04:19:07.690Z,102332.16
2023-05-08T04:21:36.548Z,102330.44
2023-05-08T04:24:10.911Z,102328.78
2023-05-08T04:26:41.959Z,102329.72
2023-05-08T04:29:09.786Z,102332.53
2023-05-08T04:31:38.528Z,102331.44
2023-05-08T04:34:06.600Z,102335.03
2023-05-08T04:36:34.032Z,102340.06
2023-05-08T04:39:00.938Z,102331.28
2023-05-08T04:41:27.610Z,102336.34
2023-05-08T04:43:54.755Z,102345.66
2023-05-08T04:46:21.566Z,102334.47
2023-05-08T04:48:49.571Z,102348.47
2023-05-08T04:51:21.735Z,102344.94
2023-05-08T04:53:48.630Z,102353.69
2023-05-08T04:56:15.531Z,102336.34
2023-05-08T04:58:43.253Z,102342.19
2023-05-08T05:01:10.312Z,102361.38
2023-05-08T05:03:37.322Z,102359.56
2023-05-08T05:06:04.994Z,102358.63
2023-05-08T05:08:32.366Z,102361.13
2023-05-08T05:10:59.210Z,102347.22
2023-05-08T05:13:27.102Z,102358.47
2023-05-08T05:15:58.977Z,102368.81
2023-05-08T05:18:25.577Z,102373.03
2023-05-08T05:20:53.630Z,102375.13
2023-05-08T05:23:20.898Z,102368.00
2023-05-08T05:25:51.835Z,102377.22
2023-05-08T05:28:45.800Z,102348.69
2023-05-08T05:31:15.815Z,102391.66
2023-05-08T05:33:43.025Z,102393.47
2023-05-08T05:36:09.657Z,102389.13
2023-05-08T05:38:37.374Z,102382.66
2023-05-08T05:41:07.725Z,102385.00
2023-05-08T05:43:34.395Z,102378.09
2023-05-08T05:46:08.326Z,102374.41
2023-05-08T05:48:36.453Z,102388.28
2023-05-08T05:51:05.963Z,102380.22
2023-05-08T05:53:32.534Z,102384.38
2023-05-08T05:55:59.634Z,102376.22
2023-05-08T05:58:26.492Z,102381.03
2023-05-08T06:00:53.341Z,102382.78
2023-05-08T06:03:21.842Z,102379.00
2023-05-08T06:05:48.759Z,102383.03
2023-05-08T06:08:18.113Z,102383.75
2023-05-08T06:10:44.935Z,102388.97
2023-05-08T06:13:11.884Z,102399.38
2023-05-08T06:15:38.656Z,102408.75
2023-05-08T06:18:06.305Z,102397.03
2023-05-08T06:20:33.050Z,102409.41
2023-05-08T06:22:59.804Z,102400.31
2023-05-08T06:25:28.159Z,102402.88
2023-05-08T06:27:55.220Z,102391.28
2023-05-08T06:30:21.938Z,102404.25
2023-05-08T06:32:48.663Z,102400.66
2023-05-08T06:35:19.274Z,102399.97
2023-05-08T06:37:49.171Z,102398.16
2023-05-08T06:40:23.945Z,102397.38
2023-05-08T06:42:50.761Z,102397.38
2023-05-08T06:45:17.497Z,102405.91
2023-05-08T06:47:44.217Z,102405.53
2023-05-08T06:50:12.305Z,102394.97
2023-05-08T06:52:39.152Z,102400.81
2023-05-08T06:55:06.463Z,102390.31
2023-05-08T06:57:33.378Z,102396.69
2023-05-08T07:00:00.403Z,102382.31
2023-05-08T07:02:30.461Z,102394.59
2023-05-08T07:04:57.336Z,102400.84
2023-05-08T07:07:24.145Z,102393.34
2023-05-08T07:09:50.838Z,102386.28
2023-05-08T07:12:17.515Z,102389.44
2023-05-08T07:14:44.260Z,102385.59
2023-05-08T07:17:12.231Z,102385.16
2023-05-08T07:19:39.073Z,102379.81
2023-05-08T07:22:06.546Z,102389.94
2023-05-08T07:24:33.360Z,102387.53
2023-05-08T07:27:00.276Z,102378.78
2023-05-08T07:29:30.321Z,102385.28
2023-05-08T07:31:59.437Z,102392.78
2023-05-08T07:34:26.228Z,102379.81
2023-05-08T07:36:52.970Z,102382.63
2023-05-08T07:39:21.065Z,102378.41
2023-05-08T07:41:49.722Z,102390.25
2023-05-08T07:44:16.941Z,102373.84
2023-05-08T07:46:44.061Z,102389.13
2023-05-08T07:49:13.257Z,102397.63
2023-05-08T07:51:41.387Z,102403.22
2023-05-08T07:54:08.555Z,102372.31
2023-05-08T07:56:35.429Z,102402.38
2023-05-08T07:59:02.071Z,102396.75
2023-05-08T08:01:33.954Z,102396.34
2023-05-08T08:04:01.049Z,102397.13
2023-05-08T08:06:29.921Z,102394.72
2023-05-08T08:08:56.504Z,102398.66
2023-05-08T08:11:23.765Z,102397.63
2023-05-08T08:13:50.623Z,102397.03
2023-05-08T08:16:17.170Z,102395.72
2023-05-08T08:18:43.864Z,102397.53
2023-05-08T08:21:14.409Z,102379.69
2023-05-08T08:23:43.379Z,102379.78
2023-05-08T08:26:10.481Z,102373.81
2023-05-08T08:28:37.907Z,102369.84
2023-05-08T08:31:07.002Z,102376.16
2023-05-08T08:33:33.834Z,102375.56
2023-05-08T08:36:00.448Z,102384.06
2023-05-08T08:38:27.414Z,102385.31
2023-05-08T08:40:55.098Z,102391.00
2023-05-08T08:43:22.303Z,102362.88
2023-05-08T08:45:49.037Z,102377.03
2023-05-08T08:48:17.752Z,102385.31
2023-05-08T08:50:47.539Z,102386.47
2023-05-08T08:53:19.468Z,102390.97
2023-05-08T08:55:47.373Z,102376.19
2023-05-08T08:58:34.650Z,102394.69
2023-05-08T09:01:04.286Z,102390.88
2023-05-08T09:03:32.357Z,102389.06
2023-05-08T09:06:04.645Z,102379.50
2023-05-08T09:08:34.692Z,102392.28
2023-05-08T09:11:03.708Z,102384.16
2023-05-08T09:13:31.069Z,102390.00
2023-05-08T09:15:59.929Z,102368.16
2023-05-08T09:18:29.492Z,102389.72
2023-05-08T09:20:57.123Z,102394.78
2023-05-08T09:23:24.228Z,102381.34
2023-05-08T09:25:51.014Z,102381.78
2023-05-08T09:28:19.495Z,102398.56
2023-05-08T09:30:56.285Z,102403.31
2023-05-08T09:33:29.065Z,102397.56
2023-05-08T09:35:57.066Z,102398.13
2023-05-08T09:38:37.195Z,102392.56
2023-05-08T09:41:15.986Z,102389.31
2023-05-08T09:43:45.023Z,102397.72
2023-05-08T09:46:24.535Z,102390.84
2023-05-08T09:48:54.057Z,102390.97
2023-05-08T09:51:22.274Z,102372.97
2023-05-08T09:53:53.480Z,102386.38
2023-05-08T09:56:47.535Z,102375.13
2023-05-08T09:59:30.857Z,102399.91
2023-05-08T10:01:59.617Z,102380.19
2023-05-08T10:04:37.995Z,102395.03
2023-05-08T10:07:07.584Z,102395.47
2023-05-08T10:09:46.829Z,102391.31
2023-05-08T10:12:17.180Z,102390.78
2023-05-08T10:14:46.488Z,102395.63
2023-05-08T10:17:22.235Z,102383.53
2023-05-08T10:19:55.102Z,102391.78
2023-05-08T10:22:25.153Z,102388.56
2023-05-08T10:24:57.847Z,102381.56
2023-05-08T10:27:33.633Z,102388.00
2023-05-08T10:30:04.652Z,102388.75
2023-05-08T10:32:40.744Z,102389.81
2023-05-08T10:35:10.957Z,102385.94
2023-05-08T10:37:39.528Z,102390.38
2023-05-08T10:40:07.256Z,102390.16
2023-05-08T10:42:38.207Z,102394.78
2023-05-08T10:45:06.137Z,102392.00
2023-05-08T10:47:46.292Z,102359.28
2023-05-08T10:50:16.430Z,102394.97
2023-05-08T10:53:14.291Z,102391.69
2023-05-08T10:55:44.637Z,102397.16
2023-05-08T10:58:30.300Z,102379.13
2023-05-08T11:01:00.182Z,102388.69
2023-05-08T11:03:32.786Z,102366.06
2023-05-08T11:06:02.129Z,102365.53
2023-05-08T11:08:31.742Z,102384.50
2023-05-08T11:11:02.127Z,102391.56
2023-05-08T11:13:41.848Z,102390.28
2023-05-08T11:16:13.128Z,102382.78
2023-05-08T11:19:18.569Z,102387.59
2023-05-08T11:22:16.820Z,102383.84
2023-05-08T11:25:01.812Z,102368.63
2023-05-08T11:27:35.946Z,102367.75
2023-05-08T11:30:23.632Z,102367.97
2023-05-08T11:33:19.364Z,102378.03
2023-05-08T11:35:58.236Z,102376.97
2023-05-08T11:38:38.717Z,102373.00
2023-05-08T11:41:08.783Z,102367.84
2023-05-08T11:43:37.494Z,102361.94
2023-05-08T11:46:14.748Z,102362.78
2023-05-08T11:48:42.081Z,102357.44
2023-05-08T11:51:09.781Z,102354.63
2023-05-08T11:53:37.915Z,102361.38
2023-05-08T11:56:10.838Z,102343.97
2023-05-08T11:58:42.469Z,102357.38
2023-05-08T12:01:09.226Z,102344.59
2023-05-08T12:03:36.059Z,102348.88
2023-05-08T12:06:03.572Z,102342.66
2023-05-08T12:08:30.582Z,102341.69
2023-05-08T12:10:58.228Z,102353.72
2023-05-08T12:13:27.344Z,102348.47
2023-05-08T12:15:59.769Z,102353.38
2023-05-08T12:18:31.993Z,102340.78
2023-05-08T12:21:01.353Z,102340.00
2023-05-08T12:23:34.178Z,102337.88
2023-05-08T12:26:02.261Z,102338.28
2023-05-08T12:28:29.539Z,102326.66
2023-05-08T12:30:56.530Z,102320.97
2023-05-08T12:33:24.045Z,102323.06
2023-05-08T12:35:50.957Z,102315.59
2023-05-08T12:38:17.747Z,102320.13
2023-05-08T12:40:46.706Z,102324.00
2023-05-08T12:43:13.759Z,102321.63
2023-05-08T12:45:42.347Z,102316.72
2023-05-08T12:48:16.106Z,102308.34
2023-05-08T12:50:46.320Z,102303.38
2023-05-08T12:53:14.925Z,102305.88
2023-05-08T12:55:57.832Z,102289.00
2023-05-08T12:58:27.921Z,102291.31
2023-05-08T13:01:05.022Z,102289.22
2023-05-08T13:03:33.576Z,102299.38
2023-05-08T13:06:00.497Z,102297.47
2023-05-08T13:08:32.267Z,102300.06
2023-05-08T13:11:01.267Z,102273.41
2023-05-08T13:13:31.786Z,102289.19
2023-05-08T13:16:02.417Z,102288.34
2023-05-08T13:18:33.790Z,102293.72
2023-05-08T13:21:02.382Z,102291.88
2023-05-08T13:23:31.052Z,102296.66
2023-05-08T13:26:00.846Z,102309.00
2023-05-08T13:28:32.408Z,102303.75
2023-05-08T13:31:02.256Z,102300.34
2023-05-08T13:33:29.001Z,102294.81
2023-05-08T13:35:56.840Z,102293.34
2023-05-08T13:38:27.661Z,102282.16
2023-05-08T13:40:54.917Z,102286.31
2023-05-08T13:43:22.995Z,102286.59
2023-05-08T13:45:49.861Z,102282.19
2023-05-08T13:48:20.588Z,102265.81
2023-05-08T13:50:47.603Z,102276.56
2023-05-08T13:53:14.590Z,102263.47
2023-05-08T13:55:43.724Z,102268.09
2023-05-08T13:58:10.526Z,102269.41
2023-05-08T14:00:37.281Z,102261.72
2023-05-08T14:03:05.046Z,102262.75
2023-05-08T14:05:32.263Z,102264.75
2023-05-08T14:08:01.716Z,102265.13
2023-05-08T14:10:33.736Z,102275.06
2023-05-08T14:13:00.440Z,102270.75
2023-05-08T14:15:34.814Z,102270.19
2023-05-08T14:18:04.442Z,102257.94
2023-05-08T14:20:31.474Z,102260.53
2023-05-08T14:23:00.048Z,102257.19
2023-05-08T14:25:27.487Z,102258.00
2023-05-08T14:27:54.386Z,102253.94
2023-05-08T14:30:21.171Z,102258.47
2023-05-08T14:32:50.282Z,102258.19
2023-05-08T14:35:18.528Z,102244.84
2023-05-08T14:37:45.625Z,102250.06
2023-05-08T14:40:13.186Z,102246.25
2023-05-08T14:42:41.293Z,102241.53
2023-05-08T14:45:13.030Z,102236.69
2023-05-08T14:47:40.477Z,102214.75
2023-05-08T14:50:07.758Z,102215.66
2023-05-08T14:52:34.730Z,102230.16
2023-05-08T14:55:02.157Z,102225.19
2023-05-08T14:57:29.432Z,102231.44
2023-05-08T14:59:57.595Z,102226.16
2023-05-08T15:02:24.356Z,102229.59
2023-05-08T15:04:51.312Z,102235.69
2023-05-08T15:07:19.376Z,102230.88
2023-05-08T15:09:49.226Z,102232.19
2023-05-08T15:12:16.247Z,102226.53
2023-05-08T15:14:45.983Z,102225.53
2023-05-08T15:17:15.554Z,102226.13
2023-05-08T15:19:42.916Z,102218.28
2023-05-08T15:22:10.650Z,102207.97
2023-05-08T15:24:37.378Z,102234.44
2023-05-08T15:27:04.633Z,102230.97
2023-05-08T15:29:32.729Z,102239.00
2023-05-08T15:31:59.364Z,102238.00
2023-05-08T15:34:29.099Z,102226.25
2023-05-08T15:36:59.174Z,102254.50
2023-05-08T15:39:26.172Z,102238.66
2023-05-08T15:41:52.697Z,102245.94
2023-05-08T15:44:19.817Z,102252.34
2023-05-08T15:46:46.664Z,102254.53
2023-05-08T15:49:13.317Z,102258.38
2023-05-08T15:51:40.376Z,102263.09
2023-05-08T15:54:07.421Z,102253.19
2023-05-08T15:56:37.341Z,102256.97
2023-05-08T15:59:04.309Z,102259.59
2023-05-08T16:01:31.141Z,102267.38
2023-05-08T16:03:58.257Z,102271.25
2023-05-08T16:06:24.938Z,102274.63
2023-05-08T16:08:51.963Z,102276.22
2023-05-08T16:11:20.027Z,102259.88
2023-05-08T16:13:48.219Z,102273.28
2023-05-08T16:16:14.934Z,102264.25
2023-05-08T16:18:41.868Z,102267.56
2023-05-08T16:21:10.308Z,102268.16
2023-05-08T16:23:37.671Z,102260.97
2023-05-08T16:26:05.081Z,102266.09
2023-05-08T16:28:31.925Z,102254.81
2023-05-08T16:30:59.266Z,102262.34
2023-05-08T16:33:26.284Z,102257.31
2023-05-08T16:35:53.241Z,102265.88
2023-05-08T16:38:22.689Z,102255.44
2023-05-08T16:40:50.789Z,102251.72
2023-05-08T16:43:17.800Z,102236.78
2023-05-08T16:45:44.988Z,102237.41
2023-05-08T16:48:12.139Z,102239.66
2023-05-08T16:50:38.819Z,102222.63
2023-05-08T16:53:06.528Z,102237.97
2023-05-08T16:55:33.703Z,102231.81
2023-05-08T16:58:03.381Z,102226.66
2023-05-08T17:00:31.145Z,102204.16
2023-05-08T17:02:59.485Z,102221.63
2023-05-08T17:05:29.399Z,102227.03
2023-05-08T17:07:56.203Z,102228.97
2023-05-08T17:10:23.134Z,102238.56
2023-05-08T17:12:55.816Z,102230.13
2023-05-08T17:15:22.614Z,102242.56
2023-05-08T17:17:50.964Z,102233.34
2023-05-08T17:20:18.783Z,102237.66
2023-05-08T17:22:45.891Z,102228.75
2023-05-08T17:25:13.146Z,102232.06
2023-05-08T17:27:40.040Z,102219.75
2023-05-08T17:30:08.873Z,102213.59
2023-05-08T17:32:35.612Z,102216.28
2023-05-08T17:35:03.014Z,102215.34
2023-05-08T17:37:30.304Z,102213.84
2023-05-08T17:39:57.019Z,102209.88
2023-05-08T17:42:24.100Z,102212.47
2023-05-08T17:44:51.148Z,102213.84
2023-05-08T17:47:20.562Z,102208.09
2023-05-08T17:49:47.512Z,102211.91
2023-05-08T17:52:17.120Z,102203.59
2023-05-08T17:54:46.500Z,102222.69
2023-05-08T17:57:13.230Z,102225.06
2023-05-08T17:59:40.127Z,102232.19
2023-05-08T18:02:08.721Z,102233.22
2023-05-08T18:04:37.006Z,102225.88
2023-05-08T18:07:06.909Z,102232.38
2023-05-08T18:09:33.562Z,102232.38
2023-05-08T18:12:02.778Z,102235.09
2023-05-08T18:14:32.083Z,102216.03
2023-05-08T18:16:59.471Z,102209.00
2023-05-08T18:19:26.885Z,102200.75
2023-05-08T18:21:53.819Z,102207.81
2023-05-08T18:24:20.902Z,102220.34
2023-05-08T18:26:48.250Z,102218.84
2023-05-08T18:29:15.583Z,102218.84
2023-05-08T18:31:42.836Z,102203.97
2023-05-08T18:34:09.610Z,102215.19
2023-05-08T18:36:36.692Z,102223.56
2023-05-08T18:39:05.475Z,102221.53
2023-05-08T18:41:32.152Z,102222.47
2023-05-08T18:44:03.425Z,102216.81
2023-05-08T18:46:30.012Z,102213.91
2023-05-08T18:48:56.636Z,102215.28
2023-05-08T18:51:23.755Z,102206.19
2023-05-08T18:53:50.967Z,102210.59
2023-05-08T18:56:19.521Z,102197.63
2023-05-08T18:58:47.804Z,102194.38
2023-05-08T19:01:20.895Z,102193.84
2023-05-08T19:03:48.546Z,102181.84
2023-05-08T19:06:15.338Z,102204.31
2023-05-08T19:08:42.177Z,102205.41
2023-05-08T19:11:10.430Z,102188.38
2023-05-08T19:13:39.986Z,102203.25
2023-05-08T19:16:07.099Z,102198.97
2023-05-08T19:18:33.744Z,102199.81
2023-05-08T19:21:01.255Z,102197.75
2023-05-08T19:23:30.989Z,102215.63
2023-05-08T19:25:57.608Z,102207.81
2023-05-08T19:28:25.374Z,102225.88
2023-05-08T19:30:52.745Z,102232.47
2023-05-08T19:33:22.799Z,102228.41
2023-05-08T19:35:52.941Z,102231.94
2023-05-08T19:38:20.850Z,102231.06
2023-05-08T19:40:57.025Z,102238.72
2023-05-08T19:43:27.828Z,102226.41
2023-05-08T19:45:55.553Z,102237.81
2023-05-08T19:48:22.561Z,102247.72
2023-05-08T19:50:53.619Z,102240.31
2023-05-08T19:53:21.612Z,102238.69
2023-05-08T19:55:49.429Z,102245.66
2023-05-08T19:58:17.589Z,102246.41
2023-05-08T20:03:16.206Z,102251.84
2023-05-08T20:05:42.896Z,102237.84
2023-05-08T20:08:09.343Z,102240.31
2023-05-08T20:10:36.090Z,102245.00
2023-05-08T20:13:05.598Z,102244.59
2023-05-08T20:15:32.127Z,102244.03
2023-05-08T20:17:59.674Z,102244.88
2023-05-08T20:20:27.284Z,102242.41
2023-05-08T20:22:53.804Z,102239.34
2023-05-08T20:25:20.623Z,102234.78
2023-05-08T20:27:47.153Z,102240.03
2023-05-08T20:30:14.202Z,102241.84
2023-05-08T20:32:40.961Z,102233.09
2023-05-08T20:35:08.046Z,102227.75
2023-05-08T20:37:34.539Z,102234.88
2023-05-08T20:40:02.084Z,102241.09
2023-05-08T20:42:28.791Z,102240.91
2023-05-08T20:44:55.366Z,102233.84
2023-05-08T20:47:21.815Z,102233.84
2023-05-08T20:49:48.321Z,102240.13
2023-05-08T20:52:15.030Z,102237.47
2023-05-08T20:54:44.406Z,102235.75
2023-05-08T20:57:12.914Z,102238.41
2023-05-08T20:59:39.651Z,102234.88
2023-05-08T21:02:06.270Z,102238.53
2023-05-08T21:04:32.801Z,102226.03
2023-05-08T21:06:59.389Z,102221.75
2023-05-08T21:09:26.045Z,102225.06
2023-05-08T21:11:52.588Z,102215.34
2023-05-08T21:14:19.517Z,102208.28
2023-05-08T21:16:46.080Z,102209.53
2023-05-08T21:19:17.252Z,102204.94
2023-05-08T21:21:44.842Z,102202.28
2023-05-08T21:24:11.593Z,102205.25
2023-05-08T21:26:38.224Z,102199.31
2023-05-08T21:29:05.129Z,102207.41
2023-05-08T21:31:32.553Z,102202.47
2023-05-08T21:33:59.113Z,102196.94
2023-05-08T21:36:25.950Z,102190.19
2023-05-08T21:38:52.701Z,102188.38
2023-05-08T21:41:19.203Z,102179.59
2023-05-08T21:43:45.966Z,102178.06
2023-05-08T21:46:12.857Z,102180.94
2023-05-08T21:48:39.344Z,102178.38
2023-05-08T21:51:06.100Z,102168.94
2023-05-08T21:53:32.737Z,102161.22
2023-05-08T21:55:59.640Z,102171.59
2023-05-08T21:58:26.637Z,102165.50
2023-05-08T22:00:53.414Z,102165.13
2023-05-08T22:03:20.016Z,102165.13
2023-05-08T22:05:47.041Z,102158.06
2023-05-08T22:08:13.796Z,102151.94
2023-05-08T22:10:40.776Z,102155.41
2023-05-08T22:13:07.789Z,102139.66
2023-05-08T22:15:34.877Z,102141.19
2023-05-08T22:18:02.966Z,102134.22
2023-05-08T22:20:29.743Z,102129.94
2023-05-08T22:22:56.292Z,102125.13
2023-05-08T22:25:23.150Z,102128.66
2023-05-08T22:27:49.597Z,102126.19
2023-05-08T22:30:16.299Z,102123.53
2023-05-08T22:32:42.885Z,102121.03
2023-05-08T22:35:09.595Z,102109.53
2023-05-08T22:37:37.049Z,102113.13
2023-05-08T22:40:04.126Z,102119.03
2023-05-08T22:42:30.954Z,102109.53
2023-05-08T22:44:57.802Z,102106.00
2023-05-08T22:47:25.918Z,102107.72
2023-05-08T22:49:52.925Z,102097.91
2023-05-08T22:52:19.462Z,102098.00
2023-05-08T22:54:46.449Z,102096.47
2023-05-08T22:57:14.455Z,102085.72
2023-05-08T22:59:40.951Z,102082.09
2023-05-08T23:02:07.489Z,102081.34
2023-05-08T23:04:34.363Z,102070.75
2023-05-08T23:07:02.895Z,102053.34
2023-05-08T23:09:30.764Z,102065.53
2023-05-08T23:11:57.327Z,102057.53
2023-05-08T23:14:24.130Z,102041.25
2023-05-08T23:16:50.828Z,102050.38
2023-05-08T23:19:17.352Z,102045.06
2023-05-08T23:21:43.832Z,102043.25
2023-05-08T23:24:10.744Z,102037.25
2023-05-08T23:26:37.604Z,102034.56
2023-05-08T23:29:04.724Z,102031.06
2023-05-08T23:31:31.320Z,102027.81
2023-05-08T23:33:58.166Z,102020.78
2023-05-08T23:36:24.725Z,102014.00
2023-05-08T23:38:51.341Z,102016.69
2023-05-08T23:41:18.068Z,102013.34
2023-05-08T23:43:44.534Z,102017.53
2023-05-08T23:46:11.591Z,102014.09
2023-05-08T23:48:38.126Z,102005.25
2023-05-08T23:51:04.905Z,102015.81
2023-05-08T23:53:31.409Z,102006.88
2023-05-08T23:55:58.041Z,102017.44
2023-05-08T23:58:24.584Z,102019.16
